Flight Track Log - Related Links

Times and Time Zones

All times are in EDT time to prevent confusion due to time zone crossing. See the EJM345 flight status page for this flight to view local times or setup timezone preferences in your user account.

Time Position Orientation Groundspeed Altitude Reporting Facility
EDT Latitude Longitude Course Direction KTS MPH feet Rate Location/Type
Sun 12:21:00 PM 52.5378 -17.0131 286° West  Level FlightAware Approximate
Sun 12:22:00 PM 52.5678 -17.1919 286° West  Level FlightAware Approximate
Sun 12:23:00 PM 52.5976 -17.3709 285° West  Level FlightAware Approximate
Sun 12:24:00 PM 52.6272 -17.5502 285° West  Level FlightAware Approximate
Sun 12:25:00 PM 52.6564 -17.7297 285° West  Level FlightAware Approximate
Sun 12:26:00 PM 52.6854 -17.9094 285° West  Level FlightAware Approximate
Sun 12:27:00 PM 52.7141 -18.0894 285° West  Level FlightAware Approximate
Sun 12:28:00 PM 52.7425 -18.2696 285° West  Level FlightAware Approximate
Sun 12:29:00 PM 52.7707 -18.4500 285° West  Level FlightAware Approximate
Sun 12:30:00 PM 52.7986 -18.6307 284° West  Level FlightAware Approximate
Sun 12:31:00 PM 52.8262 -18.8116 284° West  Level FlightAware Approximate
Sun 12:32:00 PM 52.8536 -18.9928 284° West  Level FlightAware Approximate
Sun 12:33:00 PM 52.8806 -19.1741 284° West  Level FlightAware Approximate
Sun 12:34:00 PM 52.9074 -19.3557 284° West  Level FlightAware Approximate
Sun 12:35:00 PM 53.0000 -20.0000 274° West 432 497 36,000  Level ETMS Enhanced Traffic Management System
Sun 01:29:15 PM 53.0000 -30.0000 265° West 403 464 36,000  Level ETMS Enhanced Traffic Management System
Sun 02:24:00 PM 52.0000 -40.0000 256° West 383 441 36,000  Level ETMS Enhanced Traffic Management System
Sun 02:25:00 PM 51.8907 -40.7124 256° West  Level FlightAware Approximate
Sun 02:26:00 PM 51.8628 -40.8894 256° West  Level FlightAware Approximate
Sun 02:27:00 PM 51.8346 -41.0662 256° West  Level FlightAware Approximate
Sun 02:28:00 PM 51.8062 -41.2427 255° West  Level FlightAware Approximate
Sun 02:29:00 PM 51.7775 -41.4190 255° West  Level FlightAware Approximate
Sun 02:30:00 PM 51.7636 -41.5034 255° West 383 441 36,000  Level FlightAware Transoceanic
Sun 02:31:00 PM 51.7362 -41.6695 255° West 383 441 36,000  Level FlightAware Transoceanic
Sun 02:32:00 PM 51.7085 -41.8353 255° West 383 441 36,000  Level FlightAware Transoceanic
Sun 02:33:00 PM 51.6806 -42.0010 255° West 383 441 36,000  Level FlightAware Transoceanic
Sun 02:34:00 PM 51.6525 -42.1664 255° West 383 441 36,000  Level FlightAware Transoceanic
Sun 02:35:00 PM 51.6241 -42.3316 254° West 383 441 36,000  Level FlightAware Transoceanic
Sun 02:36:00 PM 51.5955 -42.4967 254° West 383 441 36,000  Level FlightAware Transoceanic
Sun 02:37:00 PM 51.5667 -42.6615 254° West 383 441 36,000  Level FlightAware Transoceanic
Sun 02:38:00 PM 51.5376 -42.8261 254° West 383 441 36,000  Level FlightAware Transoceanic
Sun 02:39:00 PM 51.5083 -42.9905 254° West 383 441 36,000  Level FlightAware Transoceanic
Sun 02:40:00 PM 51.4788 -43.1547 254° West 383 441 36,000  Level FlightAware Transoceanic
Sun 02:41:00 PM 51.4490 -43.3187 254° West 383 441 36,000  Level FlightAware Transoceanic
Sun 02:42:00 PM 51.4190 -43.4824 254° West 383 441 36,000  Level FlightAware Transoceanic
Sun 02:43:00 PM 51.3888 -43.6460 253° West 383 441 36,000  Level FlightAware Transoceanic
Sun 02:44:00 PM 51.3584 -43.8093 253° West 383 441 36,000  Level FlightAware Transoceanic
Sun 02:45:00 PM 51.3277 -43.9724 253° West 383 441 36,000  Level FlightAware Transoceanic
Sun 02:46:00 PM 51.2968 -44.1353 253° West 383 441 36,000  Level FlightAware Transoceanic
Sun 02:47:00 PM 51.2657 -44.2980 253° West 383 441 36,000  Level FlightAware Transoceanic
Sun 02:48:00 PM 51.2343 -44.4605 253° West 383 441 36,000  Level FlightAware Transoceanic
Sun 02:49:00 PM 51.2028 -44.6227 253° West 383 441 36,000  Level FlightAware Transoceanic
Sun 02:50:00 PM 51.1710 -44.7847 253° West 383 441 36,000  Level FlightAware Transoceanic
Sun 02:51:00 PM 51.1390 -44.9465 252° West 383 441 36,000  Level FlightAware Transoceanic
Sun 02:52:00 PM 51.1067 -45.1081 252° West 383 441 36,000  Level FlightAware Transoceanic
Sun 02:53:00 PM 51.0743 -45.2694 252° West 383 441 36,000  Level FlightAware Transoceanic
Sun 02:54:00 PM 51.0416 -45.4305 252° West 383 441 36,000  Level FlightAware Transoceanic
Sun 02:55:00 PM 51.0087 -45.5914 252° West 383 441 36,000  Level FlightAware Transoceanic
Sun 02:56:00 PM 50.9756 -45.7520 252° West 383 441 36,000  Level FlightAware Transoceanic
Sun 02:57:00 PM 50.9422 -45.9124 252° West 383 441 36,000  Level FlightAware Transoceanic
Sun 02:58:00 PM 50.9087 -46.0726 252° West 383 441 36,000  Level FlightAware Transoceanic
Sun 02:59:00 PM 50.8749 -46.2326 251° West 383 441 36,000  Level FlightAware Transoceanic
Sun 03:00:00 PM 50.8409 -46.3923 251° West 383 441 36,000  Level FlightAware Transoceanic
Sun 03:01:00 PM 50.8067 -46.5518 251° West 383 441 36,000  Level FlightAware Transoceanic
Sun 03:02:00 PM 50.7722 -46.7111 251° West 383 441 36,000  Level FlightAware Transoceanic
Sun 03:03:00 PM 50.7376 -46.8701 251° West 383 441 36,000  Level FlightAware Transoceanic
Sun 03:04:00 PM 50.7027 -47.0289 251° West 383 441 36,000  Level FlightAware Transoceanic
Sun 03:05:00 PM 50.6676 -47.1874 251° West 383 441 36,000  Level FlightAware Transoceanic
Sun 03:06:00 PM 50.6323 -47.3457 251° West 383 441 36,000  Level FlightAware Transoceanic
Sun 03:07:00 PM 50.5968 -47.5038 250° West 383 441 36,000  Level FlightAware Transoceanic
Sun 03:08:00 PM 50.5611 -47.6616 250° West 383 441 36,000  Level FlightAware Transoceanic
Sun 03:09:00 PM 50.5252 -47.8192 250° West 383 441 36,000  Level FlightAware Transoceanic
Sun 03:10:00 PM 50.4890 -47.9766 250° West 383 441 36,000  Level FlightAware Transoceanic
Sun 03:11:00 PM 50.4526 -48.1337 250° West 383 441 36,000  Level FlightAware Transoceanic
Sun 03:12:00 PM 50.4161 -48.2906 250° West 383 441 36,000  Level FlightAware Transoceanic
Sun 03:13:00 PM 50.3793 -48.4472 250° West 383 441 36,000  Level FlightAware Transoceanic
Sun 03:14:00 PM 50.3423 -48.6036 250° West 383 441 36,000  Level FlightAware Transoceanic
Sun 03:15:00 PM 50.3051 -48.7597 249° West 383 441 36,000  Level FlightAware Transoceanic
Sun 03:16:00 PM 50.2677 -48.9156 249° West 383 441 36,000  Level FlightAware Transoceanic
Sun 03:17:00 PM 50.2301 -49.0713 249° West 383 441 36,000  Level FlightAware Transoceanic
Sun 03:18:00 PM 50.1922 -49.2267 249° West 383 441 36,000  Level FlightAware Transoceanic
Sun 03:19:00 PM 50.1542 -49.3819 249° West 383 441 36,000  Level FlightAware Transoceanic
Sun 03:20:00 PM 50.1160 -49.5368 249° West 383 441 36,000  Level FlightAware Transoceanic
Sun 03:21:00 PM 50.0775 -49.6914 249° West 383 441 36,000  Level FlightAware Transoceanic
Sun 03:22:00 PM 50.0389 -49.8458 249° West 383 441 36,000  Level FlightAware Transoceanic
Sun 03:23:00 PM 49.9977 -50.0092 249° West  Level FlightAware Approximate
Sun 03:24:00 PM 49.9953 -50.0185 249° West  Level FlightAware Approximate
Sun 03:25:00 PM 49.9541 -50.1817 249° West  Level FlightAware Approximate
Sun 03:26:00 PM 50.0000 -50.0000 250° West 383 441 36,000  Level ETMS Enhanced Traffic Management System
Sun 03:27:29 PM 49.9000 -50.2500 249° West 370 426 36,000  Level Gander Center
Sun 03:28:00 PM 49.8315 -50.6598 248° West  Level FlightAware Approximate
Sun 03:28:29 PM 49.8667 -50.4167 253° West 370 426 36,000  Level Gander Center
Sun 03:29:00 PM 49.7902 -50.8186 248° West  Level FlightAware Approximate
Sun 03:29:29 PM 49.8333 -50.5500 249° West 360 414 36,000  Level Gander Center
Sun 03:30:00 PM 49.7487 -50.9772 248° West  Level FlightAware Approximate
Sun 03:30:29 PM 49.8000 -50.6833 249° West 360 414 36,000  Level Gander Center
Sun 03:31:00 PM 49.7070 -51.1355 248° West  Level FlightAware Approximate
Sun 03:31:29 PM 49.7667 -50.8500 253° West 360 414 36,000  Level Gander Center
Sun 03:32:00 PM 49.7351 -51.0821 249° West 383 441 36,000  Level FlightAware Transoceanic
Sun 03:32:29 PM 49.7167 -51.0000 243° Southwest 360 414 36,000  Level Gander Center
Sun 03:33:29 PM 49.6833 -51.1333 249° West 360 414 36,000  Level Gander Center
Sun 03:34:29 PM 49.6500 -51.3000 253° West 360 414 36,000  Level Gander Center
Sun 03:35:07 PM 49.6333 -51.3833 253° West 360 414 36,000  Level Gander Center
Sun 03:36:07 PM 49.5833 -51.5167 240° Southwest 360 414 36,000  Level Gander Center
Sun 03:37:07 PM 49.5667 -51.6500 259° West 360 414 36,000 -300 Level Gander Center
Sun 03:38:07 PM 49.5333 -51.8167 253° West 360 414 35,400 -1,300 Descending Gander Center
Sun 03:39:07 PM 49.4833 -51.9500 240° Southwest 360 414 33,400 -2,100 Descending Gander Center
Sun 03:40:07 PM 49.4500 -52.1167 253° West 360 414 31,200 -2,100 Descending Gander Center
Sun 03:41:07 PM 49.4333 -52.2500 259° West 380 437 29,200 -2,050 Descending Gander Center
Sun 03:42:07 PM 49.3833 -52.4000 243° Southwest 390 449 27,100 -2,150 Descending Gander Center
Sun 03:43:07 PM 49.3500 -52.5667 253° West 370 426 24,900 -2,100 Descending Gander Center
Sun 03:44:07 PM 49.3333 -52.7000 259° West 370 426 22,900 -2,100 Descending Gander Center
Sun 03:45:07 PM 49.2833 -52.8667 245° Southwest 350 403 20,700 -2,150 Descending Gander Center
Sun 03:46:07 PM 49.2667 -53.0000 259° West 350 403 18,600 -2,150 Descending Gander Center
Sun 03:47:07 PM 49.2333 -53.1333 249° West 350 403 16,400 -2,100 Descending Gander Center
Sun 03:48:07 PM 49.1833 -53.2667 240° Southwest 340 391 14,400 -2,150 Descending Gander Center
Sun 03:49:07 PM 49.1667 -53.4000 259° West 330 380 12,100 -2,155 Descending Gander Center
Sun 03:50:29 PM 49.1167 -53.5667 245° Southwest 280 322 9,300 -2,070 Descending Gander Center
Sun 03:51:29 PM 49.1000 -53.6333 249° West 260 299 7,200 -2,050 Descending Gander Center
Sun 03:52:29 PM 49.0667 -53.7500 246° West 250 288 5,200 -1,600 Descending Gander Center
Sun 03:53:29 PM 49.0333 -53.8500 243° Southwest 250 288 4,000 -750 Descending Gander Center
Sun 03:54:29 PM 49.0167 -53.9333 253° West 250 288 3,700 -700 Descending Gander Center
Sun 03:55:29 PM 49.0000 -54.0333 256° West 240 276 2,600 -800 Descending Gander Center
Sun 03:56:29 PM 48.9667 -54.1167 239° Southwest 210 242 2,100 -250 Descending Gander Center
Sun 03:57:29 PM 48.9667 -54.2000 270° West 200 230 2,100  Level Gander Center
Sun 03:58:29 PM 48.9333 -54.2833 239° Southwest 200 230 2,100  Level Gander Center
Sun 03:59:29 PM 48.9167 -54.3500 249° West 200 230 2,100 -200 Level Gander Center
Sun 04:00:29 PM 48.9167 -54.4167 270° West 150 173 1,700 -550 Descending Gander Center
Sun 04:01:29 PM 48.9333 -54.4500 307° West 130 150 1,000 -650 Descending Gander Center
Sun 04:02:29 PM 48.9333 -54.5167 270° West 130 150 400 -600 Descending Gander Center

Login

Don't have an account? Register now (free) for customized features, flight alerts, and more!